Time;durP1;ratioP1;P1;durP2;ratioP2;P2;SDS_P1;SDS_P2;PMS_P1;PMS_P2;Temp;Humidity;BMP_temperature;BMP_pressure;BME280_temperature;BME280_humidity;BME280_pressure;Samples;Min_cycle;Max_cycle;Signal;HPM_P1;HPM_P2
2022/05/12 00:00:00;;;;;;;2.00;1.05;;;21.10;54.90;;;;;;5095429;28;20192;-67
2022/05/12 00:02:28;;;;;;;3.10;1.20;;;21.00;54.90;;;;;;5094580;28;20197;-66
2022/05/12 00:04:55;;;;;;;2.50;1.10;;;21.10;54.90;;;;;;5094691;28;20225;-66
2022/05/12 00:07:21;;;;;;;1.88;0.80;;;21.00;54.90;;;;;;5094843;28;20178;-67
2022/05/12 00:09:46;;;;;;;1.90;1.13;;;21.00;54.90;;;;;;5093918;28;20231;-68
2022/05/12 00:12:12;;;;;;;1.52;0.88;;;21.00;54.90;;;;;;5094961;28;20225;-68
2022/05/12 00:14:37;;;;;;;0.90;0.70;;;21.00;54.90;;;;;;5094646;28;20237;-68
2022/05/12 00:17:03;;;;;;;0.95;0.95;;;21.00;54.90;;;;;;5094421;28;20272;-69
2022/05/12 00:19:29;;;;;;;2.35;1.40;;;21.00;54.90;;;;;;5094838;28;20174;-68
2022/05/12 00:21:55;;;;;;;2.22;0.98;;;21.00;54.90;;;;;;5094355;28;20189;-68
2022/05/12 00:24:20;;;;;;;1.42;0.80;;;21.00;55.00;;;;;;5093990;28;20683;-68
2022/05/12 00:26:46;;;;;;;1.35;0.80;;;21.00;55.20;;;;;;5094030;28;20504;-67
2022/05/12 00:29:11;;;;;;;1.65;0.85;;;21.00;55.00;;;;;;5093841;28;20219;-67
2022/05/12 00:31:41;;;;;;;1.98;1.13;;;21.00;55.00;;;;;;5094170;28;20182;-67
2022/05/12 00:34:07;;;;;;;1.20;0.95;;;21.00;55.00;;;;;;5094233;28;20209;-67
2022/05/12 00:36:32;;;;;;;1.10;0.98;;;21.00;55.00;;;;;;5093564;28;20241;-67
2022/05/12 00:38:58;;;;;;;1.85;0.90;;;20.90;54.90;;;;;;5094115;28;20174;-67
2022/05/12 00:41:23;;;;;;;1.17;0.70;;;21.00;55.00;;;;;;5094244;28;20575;-67
2022/05/12 00:43:57;;;;;;;1.95;1.00;;;21.00;55.00;;;;;;5093354;28;20181;-67
2022/05/12 00:46:24;;;;;;;0.80;0.65;;;21.00;55.00;;;;;;5094247;28;20178;-66
2022/05/12 00:48:50;;;;;;;1.25;0.90;;;20.90;55.00;;;;;;5093719;28;20177;-67
2022/05/12 00:51:33;;;;;;;2.10;0.80;;;20.90;54.90;;;;;;5093235;28;20277;-67
2022/05/12 00:54:00;;;;;;;1.60;0.93;;;20.90;54.90;;;;;;5092667;28;20297;-67
2022/05/12 00:56:26;;;;;;;2.03;1.02;;;20.90;55.00;;;;;;5092864;28;20248;-68
2022/05/12 00:58:52;;;;;;;2.10;1.00;;;20.90;55.00;;;;;;5092780;28;20186;-68
2022/05/12 01:01:18;;;;;;;1.30;0.88;;;20.90;55.00;;;;;;5092895;28;20648;-67
2022/05/12 01:03:44;;;;;;;1.50;1.00;;;20.90;55.00;;;;;;5093619;28;20234;-67
2022/05/12 01:06:10;;;;;;;1.83;0.88;;;20.90;55.00;;;;;;5092174;28;20569;-67
2022/05/12 01:08:35;;;;;;;1.63;0.80;;;20.90;55.00;;;;;;5093958;28;20265;-68
2022/05/12 01:11:14;;;;;;;1.15;0.98;;;20.90;55.00;;;;;;5092954;28;20174;-70
2022/05/12 01:13:40;;;;;;;1.48;0.85;;;20.90;55.00;;;;;;5092023;28;20248;-68
2022/05/12 01:16:06;;;;;;;1.38;0.95;;;20.90;55.00;;;;;;5092609;28;20465;-69
2022/05/12 01:18:32;;;;;;;1.30;0.80;;;20.80;55.00;;;;;;5093282;28;20184;-69
2022/05/12 01:20:58;;;;;;;0.90;0.85;;;20.80;55.00;;;;;;5093557;28;20177;-70
2022/05/12 01:23:28;;;;;;;1.50;1.00;;;20.80;55.00;;;;;;5093764;28;20625;-68
2022/05/12 01:25:59;;;;;;;1.63;0.93;;;20.80;55.00;;;;;;5092749;28;20677;-68
2022/05/12 01:28:24;;;;;;;1.48;0.80;;;21.00;55.10;;;;;;5092387;28;20166;-69
2022/05/12 01:30:50;;;;;;;1.25;0.80;;;20.80;55.00;;;;;;5093261;28;20178;-67
2022/05/12 01:33:16;;;;;;;1.50;0.77;;;20.80;55.00;;;;;;5092962;28;20663;-68
2022/05/12 01:35:41;;;;;;;1.55;0.73;;;20.80;55.00;;;;;;5093098;28;20184;-67
2022/05/12 01:38:07;;;;;;;1.02;0.63;;;20.80;55.00;;;;;;5093524;28;20182;-68
2022/05/12 01:40:32;;;;;;;2.10;0.73;;;20.80;55.00;;;;;;5092456;28;20210;-68
2022/05/12 01:42:58;;;;;;;1.65;0.93;;;20.80;55.10;;;;;;5092788;28;20184;-68
2022/05/12 01:45:26;;;;;;;1.55;0.85;;;20.80;55.00;;;;;;5093007;28;20166;-67
2022/05/12 01:47:52;;;;;;;3.17;1.02;;;20.80;55.00;;;;;;5092152;28;20189;-67
2022/05/12 01:50:18;;;;;;;1.95;0.93;;;20.80;55.10;;;;;;5093021;28;20196;-68
2022/05/12 01:52:44;;;;;;;2.08;1.02;;;20.80;55.00;;;;;;5092623;28;20192;-68
2022/05/12 01:55:17;;;;;;;1.65;0.70;;;20.80;55.10;;;;;;5092072;28;20532;-69
2022/05/12 01:57:43;;;;;;;2.35;0.88;;;20.80;55.10;;;;;;5092612;28;20182;-69
2022/05/12 02:00:12;;;;;;;1.08;0.80;;;20.80;55.10;;;;;;5093058;28;20282;-67
2022/05/12 02:02:38;;;;;;;0.73;0.57;;;20.80;55.10;;;;;;5092047;28;20219;-68
2022/05/12 02:05:04;;;;;;;1.80;0.73;;;20.80;55.10;;;;;;5092113;28;20256;-68
2022/05/12 02:07:29;;;;;;;1.13;0.60;;;20.80;55.10;;;;;;5092782;28;20197;-67
2022/05/12 02:09:55;;;;;;;1.25;0.73;;;20.80;55.10;;;;;;5091797;28;20174;-69
2022/05/12 02:12:20;;;;;;;1.92;0.80;;;20.70;55.10;;;;;;5092425;28;20257;-70
2022/05/12 02:14:46;;;;;;;1.88;0.77;;;20.80;55.10;;;;;;5091654;28;20223;-71
2022/05/12 02:17:11;;;;;;;2.40;0.93;;;20.70;55.10;;;;;;5092660;28;20174;-69
2022/05/12 02:19:37;;;;;;;1.17;0.80;;;20.70;55.10;;;;;;5092085;28;20205;-69
2022/05/12 02:22:03;;;;;;;1.52;0.93;;;20.80;55.10;;;;;;5091842;28;20772;-70
2022/05/12 02:24:29;;;;;;;1.48;0.63;;;20.70;55.10;;;;;;5092405;28;20258;-69
2022/05/12 02:26:56;;;;;;;2.28;1.00;;;20.70;55.10;;;;;;5091777;28;20653;-69
2022/05/12 02:29:22;;;;;;;2.47;0.90;;;20.70;55.00;;;;;;5091653;28;20186;-68
2022/05/12 02:31:48;;;;;;;1.85;0.90;;;20.70;55.10;;;;;;5092018;28;20175;-68
2022/05/12 02:34:14;;;;;;;1.73;0.77;;;20.70;55.00;;;;;;5092062;28;20650;-68
2022/05/12 02:36:39;;;;;;;1.77;0.80;;;20.70;55.00;;;;;;5091204;28;20340;-67
2022/05/12 02:39:05;;;;;;;2.10;0.90;;;20.70;55.00;;;;;;5092186;28;20189;-69
2022/05/12 02:41:30;;;;;;;1.42;0.73;;;20.70;55.10;;;;;;5092103;28;20173;-68
2022/05/12 02:43:56;;;;;;;1.33;0.85;;;20.70;55.10;;;;;;5090977;28;20209;-67
2022/05/12 02:46:21;;;;;;;1.80;0.65;;;20.70;55.10;;;;;;5092148;28;20231;-68
2022/05/12 02:48:50;;;;;;;2.80;0.82;;;20.70;55.10;;;;;;5091775;28;20174;-68
2022/05/12 02:51:15;;;;;;;1.08;0.70;;;20.60;55.10;;;;;;5090969;28;20173;-68
2022/05/12 02:53:41;;;;;;;1.67;0.70;;;20.60;55.10;;;;;;5091637;28;20280;-68
2022/05/12 02:56:06;;;;;;;1.88;0.88;;;20.60;55.00;;;;;;5091903;28;20170;-68
2022/05/12 02:58:33;;;;;;;1.02;0.70;;;20.60;55.00;;;;;;5091425;28;20182;-68
2022/05/12 03:00:58;;;;;;;1.70;0.80;;;20.60;55.00;;;;;;5091854;28;20651;-67
2022/05/12 03:03:24;;;;;;;1.80;1.00;;;20.60;55.00;;;;;;5092328;28;20225;-67
2022/05/12 03:05:51;;;;;;;0.95;0.80;;;20.60;55.00;;;;;;5091256;28;20170;-67
2022/05/12 03:08:16;;;;;;;0.60;0.60;;;20.60;55.00;;;;;;5092199;28;20234;-68
2022/05/12 03:10:42;;;;;;;0.73;0.73;;;20.60;55.00;;;;;;5091716;28;20264;-68
2022/05/12 03:13:07;;;;;;;1.98;0.88;;;20.60;55.00;;;;;;5091584;28;20294;-69
2022/05/12 03:15:33;;;;;;;2.20;1.10;;;20.60;55.00;;;;;;5092081;28;20178;-70
2022/05/12 03:17:59;;;;;;;1.42;0.90;;;20.60;55.00;;;;;;5093033;28;20543;-68
2022/05/12 03:20:25;;;;;;;1.92;0.80;;;20.60;55.00;;;;;;5096220;28;20177;-69
2022/05/12 03:22:50;;;;;;;2.25;0.77;;;20.60;55.00;;;;;;5095927;28;20174;-69
2022/05/12 03:25:17;;;;;;;2.00;0.80;;;20.60;55.00;;;;;;5095394;28;20196;-68
2022/05/12 03:27:43;;;;;;;1.30;0.88;;;20.50;54.90;;;;;;5095957;28;20189;-68
2022/05/12 03:30:10;;;;;;;0.93;0.60;;;20.50;54.90;;;;;;5096147;28;20178;-67
2022/05/12 03:32:36;;;;;;;1.02;0.65;;;20.50;54.90;;;;;;5094993;28;20174;-67
2022/05/12 03:35:02;;;;;;;1.60;0.95;;;20.50;54.80;;;;;;5095731;28;20259;-68
2022/05/12 03:37:28;;;;;;;2.13;0.77;;;20.50;54.80;;;;;;5095726;28;20182;-67
2022/05/12 03:39:53;;;;;;;0.82;0.70;;;20.50;54.80;;;;;;5094724;28;20272;-68
2022/05/12 03:42:19;;;;;;;1.85;0.85;;;20.50;54.80;;;;;;5095503;28;20178;-67
2022/05/12 03:44:50;;;;;;;0.85;0.65;;;20.50;54.80;;;;;;5095092;28;20581;-67
2022/05/12 03:47:22;;;;;;;1.67;0.85;;;20.50;54.80;;;;;;5094697;28;20252;-67
2022/05/12 03:49:48;;;;;;;1.67;0.77;;;20.50;54.80;;;;;;5094952;28;20166;-67
2022/05/12 03:52:14;;;;;;;1.60;0.85;;;20.50;54.80;;;;;;5095316;28;20178;-68
2022/05/12 03:54:40;;;;;;;1.05;0.70;;;20.50;54.80;;;;;;5093828;28;20231;-68
2022/05/12 03:57:06;;;;;;;2.00;0.80;;;20.50;54.70;;;;;;5095245;28;20234;-69
2022/05/12 03:59:32;;;;;;;1.23;0.82;;;20.50;54.70;;;;;;5095126;28;20235;-68
2022/05/12 04:01:57;;;;;;;1.55;0.90;;;20.50;54.70;;;;;;5093977;28;20177;-67
2022/05/12 04:04:23;;;;;;;1.13;0.70;;;20.50;54.70;;;;;;5094638;28;20290;-67
2022/05/12 04:06:49;;;;;;;1.20;0.80;;;20.50;54.70;;;;;;5094634;28;20228;-67
2022/05/12 04:09:14;;;;;;;1.17;0.70;;;20.50;54.70;;;;;;5094280;28;20170;-68
2022/05/12 04:11:39;;;;;;;1.10;0.80;;;20.50;54.70;;;;;;5094545;28;20170;-68
2022/05/12 04:14:05;;;;;;;1.27;0.75;;;20.50;54.70;;;;;;5094964;28;20212;-68
2022/05/12 04:16:32;;;;;;;1.00;0.73;;;20.50;54.70;;;;;;5093984;28;20193;-69
2022/05/12 04:18:58;;;;;;;1.95;0.88;;;20.50;54.70;;;;;;5094428;28;20166;-69
2022/05/12 04:21:23;;;;;;;1.70;0.80;;;20.50;54.70;;;;;;5093844;28;20177;-68
2022/05/12 04:23:49;;;;;;;1.13;0.82;;;20.40;54.60;;;;;;5094153;28;20470;-68
2022/05/12 04:26:14;;;;;;;1.40;0.70;;;20.50;54.60;;;;;;5094605;28;20185;-68
2022/05/12 04:28:40;;;;;;;1.65;0.80;;;20.50;54.60;;;;;;5092932;28;20632;-68
2022/05/12 04:31:05;;;;;;;0.95;0.70;;;20.50;54.60;;;;;;5094335;28;20235;-68
2022/05/12 04:36:15;;;;;;;1.48;0.68;;;20.50;54.60;;;;;;5093680;28;20276;-68
2022/05/12 04:38:41;;;;;;;2.88;1.05;;;20.50;54.60;;;;;;5094186;28;20193;-67
2022/05/12 04:41:08;;;;;;;0.82;0.70;;;20.50;55.20;;;;;;5094122;28;20486;-68
2022/05/12 04:43:33;;;;;;;2.28;1.02;;;20.50;54.60;;;;;;5093620;28;20213;-67
2022/05/12 04:45:59;;;;;;;1.75;0.95;;;20.50;54.60;;;;;;5093871;28;20216;-67
2022/05/12 04:48:25;;;;;;;0.82;0.80;;;20.50;54.60;;;;;;5094058;28;20178;-68
2022/05/12 04:50:50;;;;;;;2.40;0.90;;;20.50;54.60;;;;;;5093042;28;20176;-67
2022/05/12 04:53:16;;;;;;;1.95;0.80;;;20.50;54.60;;;;;;5093926;28;20288;-68
2022/05/12 04:55:43;;;;;;;1.23;0.98;;;20.50;54.70;;;;;;5093798;28;20584;-68
2022/05/12 04:58:08;;;;;;;0.80;0.68;;;20.50;54.70;;;;;;5093247;28;20268;-68
2022/05/12 05:00:37;;;;;;;1.27;0.70;;;20.50;54.70;;;;;;5094112;28;20278;-68
2022/05/12 05:03:03;;;;;;;1.63;0.60;;;20.50;54.70;;;;;;5093847;28;20225;-67
2022/05/12 05:05:29;;;;;;;1.50;0.80;;;20.50;54.70;;;;;;5093426;28;20227;-67
2022/05/12 05:07:55;;;;;;;1.42;0.82;;;20.50;54.70;;;;;;5093988;28;20640;-68
2022/05/12 05:10:20;;;;;;;0.98;0.65;;;20.50;54.70;;;;;;5094073;28;20251;-68
2022/05/12 05:12:46;;;;;;;1.33;0.68;;;20.50;54.70;;;;;;5092989;28;20203;-71
2022/05/12 05:15:12;;;;;;;1.23;0.70;;;20.50;54.70;;;;;;5093945;28;20185;-69
2022/05/12 05:17:38;;;;;;;1.45;0.90;;;20.50;54.70;;;;;;5092693;28;20692;-68
2022/05/12 05:20:05;;;;;;;1.70;0.80;;;20.50;54.70;;;;;;5093936;28;20239;-68
2022/05/12 05:22:32;;;;;;;1.23;0.77;;;20.50;54.70;;;;;;5094070;28;20173;-68
2022/05/12 05:24:58;;;;;;;1.40;0.88;;;20.50;54.80;;;;;;5093069;28;20182;-70
2022/05/12 05:27:23;;;;;;;1.40;0.80;;;20.50;54.80;;;;;;5093796;28;20858;-68
2022/05/12 05:29:51;;;;;;;1.52;0.73;;;20.50;54.80;;;;;;5093256;28;20207;-67
2022/05/12 05:32:16;;;;;;;1.05;0.60;;;20.50;54.80;;;;;;5093038;28;20545;-67
2022/05/12 05:34:41;;;;;;;1.27;0.70;;;20.50;54.80;;;;;;5093722;28;20283;-67
2022/05/12 05:37:07;;;;;;;1.40;0.73;;;20.50;54.70;;;;;;5093654;28;20505;-67
2022/05/12 05:39:33;;;;;;;0.60;0.52;;;20.50;54.70;;;;;;5092764;28;20186;-67
2022/05/12 05:42:02;;;;;;;0.98;0.60;;;20.50;54.70;;;;;;5093084;28;20192;-67
2022/05/12 05:44:32;;;;;;;0.68;0.60;;;20.50;54.70;;;;;;5093551;28;20211;-67
2022/05/12 05:46:58;;;;;;;0.80;0.60;;;20.50;54.90;;;;;;5092421;28;20648;-67
2022/05/12 05:49:23;;;;;;;1.15;0.93;;;20.50;54.70;;;;;;5093591;28;20186;-67
2022/05/12 05:54:34;;;;;;;1.90;1.15;;;20.50;54.70;;;;;;5092710;28;20288;-68
2022/05/12 05:57:00;;;;;;;0.70;0.70;;;20.50;54.80;;;;;;5093541;28;20198;-69
2022/05/12 05:59:26;;;;;;;0.90;0.77;;;20.50;54.80;;;;;;5093254;28;20276;-67
2022/05/12 06:01:51;;;;;;;0.85;0.70;;;20.50;54.70;;;;;;5092216;28;20292;-67
2022/05/12 06:04:17;;;;;;;1.20;0.80;;;20.50;54.70;;;;;;5093293;28;20283;-67
2022/05/12 06:06:46;;;;;;;1.85;0.88;;;20.50;54.70;;;;;;5093075;28;20180;-67
2022/05/12 06:09:12;;;;;;;0.95;0.90;;;20.50;54.80;;;;;;5093204;28;20181;-68
2022/05/12 06:11:38;;;;;;;1.52;0.90;;;20.50;54.70;;;;;;5092910;28;20265;-68
2022/05/12 06:14:04;;;;;;;1.67;0.70;;;20.50;54.70;;;;;;5092136;28;20213;-69
2022/05/12 06:16:31;;;;;;;1.42;0.77;;;20.50;54.70;;;;;;5092894;28;20185;-69
2022/05/12 06:18:56;;;;;;;2.05;0.90;;;20.50;54.70;;;;;;5092734;28;20180;-69
2022/05/12 06:21:22;;;;;;;1.08;0.60;;;20.50;54.70;;;;;;5092364;28;20518;-69
2022/05/12 06:23:47;;;;;;;1.30;0.70;;;20.60;54.70;;;;;;5092573;28;20170;-68
2022/05/12 06:26:16;;;;;;;1.60;0.77;;;20.50;54.60;;;;;;5092809;28;20177;-68
2022/05/12 06:28:45;;;;;;;1.52;0.98;;;20.50;54.60;;;;;;5091631;28;20187;-68
2022/05/12 06:31:12;;;;;;;0.80;0.73;;;20.60;54.70;;;;;;5092841;28;20190;-67
2022/05/12 06:33:38;;;;;;;1.52;0.80;;;20.60;54.60;;;;;;5091928;28;20575;-67
2022/05/12 06:36:04;;;;;;;0.60;0.60;;;20.60;54.60;;;;;;5091826;28;20177;-68
2022/05/12 06:38:30;;;;;;;1.13;0.80;;;20.60;54.60;;;;;;5092540;28;20268;-67
2022/05/12 06:40:55;;;;;;;0.82;0.70;;;20.60;54.60;;;;;;5092244;28;20257;-67
2022/05/12 06:43:23;;;;;;;1.42;0.65;;;20.60;54.50;;;;;;5091817;28;20180;-66
2022/05/12 06:45:49;;;;;;;1.08;0.98;;;20.60;54.60;;;;;;5092320;28;20178;-66
2022/05/12 06:48:15;;;;;;;1.40;0.70;;;20.60;54.60;;;;;;5093035;28;20178;-67
2022/05/12 06:50:40;;;;;;;1.77;0.80;;;20.60;54.60;;;;;;5091282;28;20180;-67
2022/05/12 06:53:06;;;;;;;1.42;0.80;;;20.60;54.50;;;;;;5092349;28;20264;-67
2022/05/12 06:55:31;;;;;;;2.85;0.80;;;20.70;54.50;;;;;;5092383;28;20675;-67
2022/05/12 06:57:57;;;;;;;1.85;0.93;;;20.60;54.50;;;;;;5090894;28;20605;-67
2022/05/12 07:00:23;;;;;;;3.63;0.90;;;20.70;54.50;;;;;;5092099;28;20676;-67
2022/05/12 07:02:48;;;;;;;2.83;0.90;;;20.70;54.50;;;;;;5091571;28;20643;-66
2022/05/12 07:05:15;;;;;;;3.10;1.20;;;20.70;54.50;;;;;;5091378;28;20668;-67
2022/05/12 07:07:42;;;;;;;3.20;1.08;;;20.80;55.00;;;;;;5091753;28;20202;-67
2022/05/12 07:10:08;;;;;;;2.40;0.80;;;20.80;55.40;;;;;;5091250;28;20177;-72
2022/05/12 07:12:33;;;;;;;4.22;0.98;;;20.70;55.20;;;;;;5091928;28;20231;-71
2022/05/12 07:14:59;;;;;;;4.15;1.35;;;20.80;55.10;;;;;;5091614;28;20210;-73
2022/05/12 07:17:25;;;;;;;2.75;1.23;;;20.80;55.00;;;;;;5090982;28;20179;-72
2022/05/12 07:19:52;;;;;;;4.53;0.88;;;20.80;54.90;;;;;;5091741;28;20592;-72
2022/05/12 07:27:46;;;;;;;1.50;1.20;;;20.90;54.70;;;;;;5091491;28;20173;-71
2022/05/12 07:30:12;;;;;;;3.67;1.10;;;20.90;54.70;;;;;;5091905;28;20189;-71
2022/05/12 07:32:37;;;;;;;4.95;0.82;;;21.00;54.70;;;;;;5090756;28;20231;-68
2022/05/12 07:35:05;;;;;;;1.65;0.90;;;21.00;54.90;;;;;;5091600;28;20304;-71
2022/05/12 07:37:31;;;;;;;2.63;1.15;;;21.00;54.80;;;;;;5091573;28;20197;-68
2022/05/12 07:39:56;;;;;;;3.30;1.02;;;21.00;54.80;;;;;;5090756;28;20640;-69
2022/05/12 07:42:22;;;;;;;2.97;1.10;;;21.00;54.80;;;;;;5091607;28;20162;-72
2022/05/12 07:44:47;;;;;;;4.10;1.50;;;21.00;54.80;;;;;;5091401;28;20230;-70
2022/05/12 07:47:13;;;;;;;4.40;1.20;;;21.00;54.90;;;;;;5090781;28;20235;-69
2022/05/12 07:49:39;;;;;;;4.38;1.13;;;21.00;54.90;;;;;;5091125;28;20177;-68
2022/05/12 07:52:06;;;;;;;6.10;1.80;;;21.00;54.90;;;;;;5091661;28;20181;-70
2022/05/12 07:54:32;;;;;;;2.15;1.00;;;21.00;54.80;;;;;;5090541;28;20684;-71
2022/05/12 07:56:57;;;;;;;2.22;1.15;;;21.00;54.80;;;;;;5091165;28;20174;-71
2022/05/12 07:59:23;;;;;;;2.10;1.30;;;21.10;54.80;;;;;;5090518;28;20645;-70
2022/05/12 08:01:49;;;;;;;5.40;1.13;;;21.00;54.80;;;;;;5091300;28;20182;-70
2022/05/12 08:04:14;;;;;;;4.63;1.60;;;21.00;54.80;;;;;;5093231;28;20217;-69
2022/05/12 08:06:41;;;;;;;4.43;1.30;;;21.10;54.80;;;;;;5093876;28;20176;-71
2022/05/12 08:09:07;;;;;;;2.67;1.58;;;21.10;54.70;;;;;;5094995;28;20205;-72
2022/05/12 08:11:32;;;;;;;3.20;1.10;;;21.10;54.80;;;;;;5095030;28;20202;-72
2022/05/12 08:13:58;;;;;;;3.78;1.20;;;21.10;54.70;;;;;;5093761;28;20334;-71
2022/05/12 08:16:24;;;;;;;1.50;0.95;;;21.10;54.60;;;;;;5094806;28;20344;-72
2022/05/12 08:18:50;;;;;;;3.00;1.05;;;21.00;54.80;;;;;;5094485;28;20181;-72
2022/05/12 08:21:16;;;;;;;1.73;0.95;;;21.00;54.90;;;;;;5093857;28;20162;-71
2022/05/12 08:23:41;;;;;;;2.10;1.10;;;21.10;54.80;;;;;;5094299;28;20544;-72
2022/05/12 08:26:07;;;;;;;2.85;1.20;;;21.10;54.70;;;;;;5094528;28;20166;-71
2022/05/12 08:28:33;;;;;;;5.07;1.25;;;21.20;54.60;;;;;;5093704;28;20201;-71
2022/05/12 08:30:58;;;;;;;4.50;1.40;;;21.20;54.60;;;;;;5092889;28;20184;-71
2022/05/12 08:33:24;;;;;;;3.47;1.30;;;21.20;54.60;;;;;;5094354;28;20623;-69
2022/05/12 08:35:49;;;;;;;2.28;0.90;;;21.20;54.40;;;;;;5093342;28;20174;-72
2022/05/12 08:38:15;;;;;;;3.35;1.20;;;21.20;54.40;;;;;;5094353;28;20174;-70
2022/05/12 08:41:05;;;;;;;1.95;1.13;;;21.30;54.50;;;;;;5094067;28;20260;-70
2022/05/12 08:43:38;;;;;;;2.92;1.13;;;21.30;54.30;;;;;;5093441;28;20685;-69
2022/05/12 08:46:07;;;;;;;3.13;1.30;;;21.30;54.20;;;;;;5092791;28;20185;-68
2022/05/12 08:48:32;;;;;;;2.83;1.27;;;21.40;54.30;;;;;;5092270;28;20200;-69
2022/05/12 08:50:58;;;;;;;2.60;1.30;;;21.40;54.20;;;;;;5093914;28;20174;-70
2022/05/12 08:53:26;;;;;;;2.80;1.20;;;21.40;54.20;;;;;;5094122;28;20197;-70
2022/05/12 08:55:53;;;;;;;1.70;1.05;;;21.40;54.10;;;;;;5091715;28;20289;-72
2022/05/12 08:58:36;;;;;;;2.17;0.80;;;21.40;54.00;;;;;;5093953;28;20178;-70
2022/05/12 09:01:03;;;;;;;2.83;1.15;;;21.30;54.20;;;;;;5092962;28;20196;-71
2022/05/12 09:04:10;;;;;;;1.90;1.15;;;21.40;54.20;;;;;;5093257;28;20260;-69
2022/05/12 09:07:02;;;;;;;2.88;0.80;;;21.40;54.00;;;;;;5092788;28;20184;-70
2022/05/12 09:09:39;;;;;;;2.03;1.23;;;21.40;54.00;;;;;;5084341;28;20189;-72
2022/05/12 09:12:13;;;;;;;1.45;0.95;;;21.40;54.00;;;;;;5092563;28;20201;-72
2022/05/12 09:14:48;;;;;;;1.98;1.20;;;21.50;54.00;;;;;;5092657;28;20399;-72
2022/05/12 09:17:19;;;;;;;1.92;1.10;;;21.50;53.90;;;;;;5091682;28;20169;-72
2022/05/12 09:19:44;;;;;;;3.88;1.40;;;21.50;53.70;;;;;;5093485;28;20259;-71
2022/05/12 09:22:10;;;;;;;1.23;0.90;;;21.60;53.70;;;;;;5093677;28;20194;-72
2022/05/12 09:24:37;;;;;;;1.75;1.08;;;21.60;53.80;;;;;;5091277;28;20177;-73
2022/05/12 09:27:07;;;;;;;5.30;1.20;;;21.60;53.80;;;;;;5092341;28;20193;-72
2022/05/12 09:29:41;;;;;;;1.88;1.13;;;21.60;53.80;;;;;;5093510;28;20234;-71
2022/05/12 09:32:06;;;;;;;1.52;0.80;;;21.60;53.80;;;;;;5091485;28;20609;-70
2022/05/12 09:34:37;;;;;;;2.33;0.98;;;21.60;53.80;;;;;;5093081;28;20267;-69
2022/05/12 09:37:16;;;;;;;2.00;0.90;;;21.70;53.60;;;;;;5092112;28;20184;-72
2022/05/12 09:39:49;;;;;;;3.67;1.48;;;21.70;53.60;;;;;;5092389;28;20531;-69
2022/05/12 09:42:27;;;;;;;1.85;1.00;;;21.70;53.60;;;;;;5093057;28;20197;-70
2022/05/12 09:45:21;;;;;;;2.40;1.20;;;21.60;53.80;;;;;;5092232;28;20185;-72
2022/05/12 09:47:47;;;;;;;1.20;0.88;;;21.70;53.70;;;;;;5091593;28;20231;-69
2022/05/12 09:50:24;;;;;;;1.40;0.85;;;21.70;53.80;;;;;;5093033;28;20181;-70
2022/05/12 09:52:58;;;;;;;1.17;1.08;;;21.70;53.80;;;;;;5091998;28;20176;-70
2022/05/12 09:55:27;;;;;;;1.92;1.05;;;21.80;53.80;;;;;;5093080;28;20238;-71
2022/05/12 09:58:00;;;;;;;1.73;1.38;;;21.70;53.80;;;;;;5092740;28;20211;-71
2022/05/12 10:00:39;;;;;;;1.25;1.15;;;21.60;54.00;;;;;;5092050;28;20182;-68
2022/05/12 10:08:44;;;;;;;3.70;1.13;;;21.70;53.90;;;;;;5092627;28;20266;-71
2022/05/12 10:11:10;;;;;;;1.63;1.00;;;21.70;53.80;;;;;;5092635;28;20206;-72
2022/05/12 10:13:44;;;;;;;2.78;1.10;;;21.60;54.10;;;;;;5090111;28;20206;-73
2022/05/12 10:16:10;;;;;;;2.05;0.90;;;21.70;54.00;;;;;;5091560;28;20582;-72
2022/05/12 10:18:54;;;;;;;2.35;1.15;;;21.80;54.10;;;;;;5091178;28;20266;-73
2022/05/12 10:21:38;;;;;;;1.98;1.08;;;21.80;54.00;;;;;;5091881;28;20181;-73
2022/05/12 10:24:19;;;;;;;1.73;1.00;;;21.80;53.80;;;;;;5091064;28;20181;-73
2022/05/12 10:26:51;;;;;;;2.70;1.10;;;21.70;53.90;;;;;;5090481;28;20562;-71
2022/05/12 10:29:39;;;;;;;3.63;1.08;;;21.70;54.10;;;;;;5090448;28;20545;-69
2022/05/12 10:32:25;;;;;;;3.70;1.25;;;21.70;53.90;;;;;;5092328;28;20173;-69
2022/05/12 10:35:06;;;;;;;2.22;1.00;;;21.80;53.90;;;;;;5091439;28;20205;-70
2022/05/12 10:37:57;;;;;;;2.75;1.10;;;21.90;53.80;;;;;;5092408;28;20181;-70
2022/05/12 10:40:44;;;;;;;2.38;1.10;;;22.00;53.60;;;;;;5092289;28;20185;-68
2022/05/12 10:43:29;;;;;;;2.65;1.33;;;22.00;53.40;;;;;;5090312;28;20182;-69
2022/05/12 10:46:05;;;;;;;1.90;1.13;;;22.00;53.30;;;;;;5090728;28;20587;-67
2022/05/12 10:48:49;;;;;;;2.35;1.60;;;22.00;53.40;;;;;;5090107;28;20208;-67
2022/05/12 10:51:14;;;;;;;1.63;0.95;;;22.00;53.40;;;;;;5090962;28;20170;-68
2022/05/12 10:53:43;;;;;;;2.28;0.98;;;22.10;53.40;;;;;;5091767;28;20649;-68
2022/05/12 10:56:46;;;;;;;3.42;1.50;;;22.10;53.30;;;;;;5091459;28;20174;-70
2022/05/12 10:59:30;;;;;;;2.28;1.00;;;22.10;53.30;;;;;;5092043;28;20176;-68
2022/05/12 11:02:00;;;;;;;1.55;1.23;;;22.10;53.50;;;;;;5091676;28;20173;-66
2022/05/12 11:04:37;;;;;;;2.97;1.27;;;22.10;53.40;;;;;;5089745;28;20225;-70
2022/05/12 11:07:08;;;;;;;2.80;1.10;;;22.20;53.60;;;;;;5090884;28;20204;-70
2022/05/12 11:09:41;;;;;;;2.50;1.50;;;22.20;53.60;;;;;;5089923;28;20265;-68
2022/05/12 11:12:43;;;;;;;3.40;0.90;;;22.30;53.40;;;;;;5090477;28;20181;-70
2022/05/12 11:15:21;;;;;;;2.75;1.10;;;22.20;53.30;;;;;;5078373;28;20224;-71
2022/05/12 11:17:57;;;;;;;1.20;0.90;;;22.30;53.40;;;;;;5089795;28;20177;-66
2022/05/12 11:20:32;;;;;;;1.80;1.20;;;22.30;53.40;;;;;;5090632;28;20218;-66
2022/05/12 11:23:18;;;;;;;2.58;1.60;;;22.30;53.30;;;;;;5090285;28;20180;-66
2022/05/12 11:26:08;;;;;;;3.22;0.80;;;22.30;53.40;;;;;;5090358;28;20177;-65
2022/05/12 11:31:44;;;;;;;2.53;1.17;;;22.20;53.20;;;;;;5089842;28;20550;-65
2022/05/12 11:34:11;;;;;;;1.48;1.13;;;22.30;53.30;;;;;;5090387;28;20209;-65
2022/05/12 11:36:44;;;;;;;3.00;1.35;;;22.20;53.40;;;;;;5090014;28;20227;-69
2022/05/12 11:39:27;;;;;;;2.85;1.10;;;22.30;53.40;;;;;;5093002;28;20185;-65
2022/05/12 11:42:18;;;;;;;2.33;1.00;;;22.30;53.20;;;;;;5095424;28;20170;-67
2022/05/12 11:44:58;;;;;;;2.70;1.23;;;22.30;53.10;;;;;;5094501;28;20182;-68
2022/05/12 11:47:58;;;;;;;8.23;1.42;;;22.30;53.10;;;;;;5095229;28;20663;-68
2022/05/12 11:50:45;;;;;;;4.88;1.17;;;22.30;53.10;;;;;;5094103;28;20232;-70
2022/05/12 11:53:25;;;;;;;4.20;1.10;;;22.30;53.20;;;;;;5093431;28;20170;-71
2022/05/12 11:56:07;;;;;;;4.18;0.98;;;22.30;53.40;;;;;;5093294;28;20181;-72
2022/05/12 11:58:42;;;;;;;3.75;1.25;;;22.30;53.30;;;;;;5093164;28;20165;-72
2022/05/12 12:01:12;;;;;;;1.90;1.00;;;22.30;53.30;;;;;;5095017;28;20635;-73
2022/05/12 12:03:58;;;;;;;1.42;1.05;;;22.30;53.30;;;;;;5094480;28;20294;-69
2022/05/12 12:06:37;;;;;;;2.13;0.82;;;22.40;53.30;;;;;;5094452;28;20264;-70
2022/05/12 12:09:43;;;;;;;2.28;1.00;;;22.40;53.30;;;;;;5095047;28;20196;-74
2022/05/12 12:12:11;;;;;;;3.35;1.23;;;22.30;53.30;;;;;;5012295;28;20222;-76
2022/05/12 12:14:42;;;;;;;1.10;0.80;;;22.40;53.20;;;;;;5011595;28;20667;-74
2022/05/12 12:17:10;;;;;;;2.67;0.80;;;22.50;53.30;;;;;;5054608;28;20617;-72
2022/05/12 12:19:52;;;;;;;1.70;0.70;;;22.50;53.10;;;;;;5092201;28;20214;-70
2022/05/12 12:22:25;;;;;;;2.15;0.90;;;22.50;53.00;;;;;;5094451;28;20613;-71
2022/05/12 12:25:11;;;;;;;3.17;1.05;;;22.60;53.00;;;;;;5094471;28;20284;-71
2022/05/12 12:27:57;;;;;;;2.42;0.75;;;22.60;52.90;;;;;;5072987;28;20182;-69
2022/05/12 12:30:39;;;;;;;0.88;0.68;;;22.60;52.90;;;;;;5074131;28;20641;-68
2022/05/12 12:33:10;;;;;;;0.88;0.70;;;22.60;52.90;;;;;;5074163;28;20186;-69
2022/05/12 12:35:56;;;;;;;3.08;0.90;;;22.60;52.90;;;;;;5088824;28;20174;-69
2022/05/12 12:38:46;;;;;;;1.52;0.80;;;22.60;52.70;;;;;;5093235;28;20185;-71
2022/05/12 12:41:19;;;;;;;1.30;0.77;;;22.60;52.60;;;;;;5093642;28;20265;-68
2022/05/12 12:43:50;;;;;;;5.30;1.10;;;22.70;52.60;;;;;;5092487;28;20206;-69
2022/05/12 12:46:18;;;;;;;2.20;0.80;;;22.70;52.50;;;;;;5094327;28;20178;-68
2022/05/12 12:48:49;;;;;;;2.15;0.70;;;22.70;52.50;;;;;;5075166;28;20178;-68
2022/05/12 12:51:31;;;;;;;2.55;0.88;;;22.80;52.40;;;;;;5092750;28;20196;-69
2022/05/12 12:56:42;;;;;;;1.02;0.70;;;22.80;52.50;;;;;;5093027;28;20715;-70
2022/05/12 12:59:22;;;;;;;0.80;0.60;;;22.80;52.40;;;;;;5092638;28;20198;-71
2022/05/12 13:01:52;;;;;;;1.40;0.60;;;22.90;52.30;;;;;;5091568;28;20178;-68
2022/05/12 13:04:24;;;;;;;1.13;0.70;;;22.90;52.30;;;;;;5092192;28;20278;-68
2022/05/12 13:07:01;;;;;;;2.58;0.60;;;22.80;52.30;;;;;;5093735;28;20235;-69
2022/05/12 13:09:35;;;;;;;2.47;1.10;;;22.80;52.40;;;;;;5093026;28;20571;-70
2022/05/12 13:12:18;;;;;;;1.83;0.77;;;22.80;52.40;;;;;;5093212;28;20177;-72
2022/05/12 13:14:44;;;;;;;1.08;0.82;;;22.80;52.40;;;;;;5093103;28;20263;-72
2022/05/12 13:17:18;;;;;;;1.23;0.95;;;22.90;52.30;;;;;;5092997;28;20181;-72
2022/05/12 13:19:43;;;;;;;2.60;0.52;;;22.90;52.30;;;;;;5092085;28;20210;-72
2022/05/12 13:22:09;;;;;;;1.13;0.73;;;22.90;52.20;;;;;;5092331;28;20659;-72